sensor_id;sensor_type;location;lat;lon;timestamp;P1;durP1;ratioP1;P2;durP2;ratioP2
71759;SDS011;59919;48.112;16.280;2023-03-23T00:02:01;2.15;;;1.95;;
71759;SDS011;59919;48.112;16.280;2023-03-23T00:04:36;2.13;;;1.88;;
71759;SDS011;59919;48.112;16.280;2023-03-23T00:07:07;2.58;;;2.15;;
71759;SDS011;59919;48.112;16.280;2023-03-23T00:09:46;2.42;;;2.13;;
71759;SDS011;59919;48.112;16.280;2023-03-23T00:12:26;2.47;;;1.95;;
71759;SDS011;59919;48.112;16.280;2023-03-23T00:15:06;2.13;;;1.70;;
71759;SDS011;59919;48.112;16.280;2023-03-23T00:17:43;2.20;;;2.00;;
71759;SDS011;59919;48.112;16.280;2023-03-23T00:20:14;2.70;;;1.90;;
71759;SDS011;59919;48.112;16.280;2023-03-23T00:22:55;3.08;;;2.05;;
71759;SDS011;59919;48.112;16.280;2023-03-23T00:25:30;3.03;;;2.00;;
71759;SDS011;59919;48.112;16.280;2023-03-23T00:28:04;2.45;;;1.92;;
71759;SDS011;59919;48.112;16.280;2023-03-23T00:30:39;3.10;;;2.15;;
71759;SDS011;59919;48.112;16.280;2023-03-23T00:33:10;2.38;;;2.13;;
71759;SDS011;59919;48.112;16.280;2023-03-23T00:35:44;2.83;;;2.10;;
71759;SDS011;59919;48.112;16.280;2023-03-23T00:38:15;2.45;;;2.20;;
71759;SDS011;59919;48.112;16.280;2023-03-23T00:40:46;2.75;;;2.08;;
71759;SDS011;59919;48.112;16.280;2023-03-23T00:43:20;2.45;;;1.95;;
71759;SDS011;59919;48.112;16.280;2023-03-23T00:45:55;1.75;;;1.63;;
71759;SDS011;59919;48.112;16.280;2023-03-23T00:48:27;2.50;;;1.95;;
71759;SDS011;59919;48.112;16.280;2023-03-23T00:51:17;2.20;;;1.90;;
71759;SDS011;59919;48.112;16.280;2023-03-23T00:53:53;2.63;;;1.90;;
71759;SDS011;59919;48.112;16.280;2023-03-23T00:56:24;2.15;;;1.95;;
71759;SDS011;59919;48.112;16.280;2023-03-23T00:58:57;2.47;;;2.10;;
71759;SDS011;59919;48.112;16.280;2023-03-23T01:01:30;2.28;;;1.80;;
71759;SDS011;59919;48.112;16.280;2023-03-23T01:04:12;2.53;;;2.03;;
71759;SDS011;59919;48.112;16.280;2023-03-23T01:06:47;2.60;;;2.00;;
71759;SDS011;59919;48.112;16.280;2023-03-23T01:09:27;2.47;;;2.00;;
71759;SDS011;59919;48.112;16.280;2023-03-23T01:11:58;2.50;;;2.03;;
71759;SDS011;59919;48.112;16.280;2023-03-23T01:14:31;2.72;;;2.08;;
71759;SDS011;59919;48.112;16.280;2023-03-23T01:17:03;2.78;;;1.90;;
71759;SDS011;59919;48.112;16.280;2023-03-23T01:19:36;2.70;;;1.50;;
71759;SDS011;59919;48.112;16.280;2023-03-23T01:22:10;2.45;;;1.98;;
71759;SDS011;59919;48.112;16.280;2023-03-23T01:24:42;2.58;;;1.70;;
71759;SDS011;59919;48.112;16.280;2023-03-23T01:27:13;2.95;;;2.00;;
71759;SDS011;59919;48.112;16.280;2023-03-23T01:29:48;2.75;;;1.80;;
71759;SDS011;59919;48.112;16.280;2023-03-23T01:32:22;2.17;;;1.75;;
71759;SDS011;59919;48.112;16.280;2023-03-23T01:34:56;2.33;;;1.98;;
71759;SDS011;59919;48.112;16.280;2023-03-23T01:37:27;3.53;;;2.13;;
71759;SDS011;59919;48.112;16.280;2023-03-23T01:40:00;2.92;;;1.83;;
71759;SDS011;59919;48.112;16.280;2023-03-23T01:42:32;2.05;;;1.70;;
71759;SDS011;59919;48.112;16.280;2023-03-23T01:50:55;3.25;;;1.90;;
71759;SDS011;59919;48.112;16.280;2023-03-23T01:53:44;2.35;;;1.70;;
71759;SDS011;59919;48.112;16.280;2023-03-23T01:56:24;3.03;;;1.83;;
71759;SDS011;59919;48.112;16.280;2023-03-23T01:59:10;2.33;;;1.80;;
71759;SDS011;59919;48.112;16.280;2023-03-23T02:01:44;2.65;;;2.05;;
71759;SDS011;59919;48.112;16.280;2023-03-23T02:04:16;4.10;;;1.70;;
71759;SDS011;59919;48.112;16.280;2023-03-23T02:06:47;2.35;;;1.98;;
71759;SDS011;59919;48.112;16.280;2023-03-23T02:09:29;2.83;;;1.60;;
71759;SDS011;59919;48.112;16.280;2023-03-23T02:12:00;2.05;;;1.67;;
71759;SDS011;59919;48.112;16.280;2023-03-23T02:14:32;2.45;;;1.67;;
71759;SDS011;59919;48.112;16.280;2023-03-23T02:17:57;2.17;;;1.70;;
71759;SDS011;59919;48.112;16.280;2023-03-23T02:26:16;2.50;;;1.70;;
71759;SDS011;59919;48.112;16.280;2023-03-23T02:35:27;2.28;;;1.88;;
71759;SDS011;59919;48.112;16.280;2023-03-23T02:37:52;2.10;;;1.60;;
71759;SDS011;59919;48.112;16.280;2023-03-23T02:40:41;2.40;;;1.60;;
71759;SDS011;59919;48.112;16.280;2023-03-23T02:45:51;2.90;;;1.40;;
71759;SDS011;59919;48.112;16.280;2023-03-23T02:48:24;3.05;;;1.98;;
71759;SDS011;59919;48.112;16.280;2023-03-23T02:51:00;2.20;;;1.70;;
71759;SDS011;59919;48.112;16.280;2023-03-23T02:56:12;2.15;;;1.58;;
71759;SDS011;59919;48.112;16.280;2023-03-23T02:58:44;2.10;;;1.60;;
71759;SDS011;59919;48.112;16.280;2023-03-23T03:04:06;1.92;;;1.70;;
71759;SDS011;59919;48.112;16.280;2023-03-23T03:10:06;2.28;;;1.90;;
71759;SDS011;59919;48.112;16.280;2023-03-23T03:16:16;1.90;;;1.65;;
71759;SDS011;59919;48.112;16.280;2023-03-23T03:22:05;1.80;;;1.70;;
71759;SDS011;59919;48.112;16.280;2023-03-23T03:24:43;1.90;;;1.25;;
71759;SDS011;59919;48.112;16.280;2023-03-23T03:27:16;2.42;;;1.70;;
71759;SDS011;59919;48.112;16.280;2023-03-23T03:29:55;2.00;;;1.50;;
71759;SDS011;59919;48.112;16.280;2023-03-23T03:32:36;2.17;;;1.67;;
71759;SDS011;59919;48.112;16.280;2023-03-23T03:35:17;1.85;;;1.55;;
71759;SDS011;59919;48.112;16.280;2023-03-23T03:37:50;1.75;;;1.58;;
71759;SDS011;59919;48.112;16.280;2023-03-23T03:40:28;1.42;;;1.30;;
71759;SDS011;59919;48.112;16.280;2023-03-23T03:43:02;2.30;;;1.42;;
71759;SDS011;59919;48.112;16.280;2023-03-23T03:45:37;1.67;;;1.40;;
71759;SDS011;59919;48.112;16.280;2023-03-23T03:48:08;2.22;;;1.63;;
71759;SDS011;59919;48.112;16.280;2023-03-23T03:50:42;1.90;;;1.40;;
71759;SDS011;59919;48.112;16.280;2023-03-23T03:53:13;2.17;;;1.50;;
71759;SDS011;59919;48.112;16.280;2023-03-23T03:55:48;1.67;;;1.55;;
71759;SDS011;59919;48.112;16.280;2023-03-23T03:58:26;1.95;;;1.63;;
71759;SDS011;59919;48.112;16.280;2023-03-23T04:01:03;1.48;;;1.38;;
71759;SDS011;59919;48.112;16.280;2023-03-23T04:03:39;2.03;;;1.60;;
71759;SDS011;59919;48.112;16.280;2023-03-23T04:06:11;1.75;;;1.45;;
71759;SDS011;59919;48.112;16.280;2023-03-23T04:08:45;2.05;;;1.50;;
71759;SDS011;59919;48.112;16.280;2023-03-23T04:11:19;1.77;;;1.42;;
71759;SDS011;59919;48.112;16.280;2023-03-23T04:13:50;1.45;;;1.13;;
71759;SDS011;59919;48.112;16.280;2023-03-23T04:16:26;1.98;;;1.40;;
71759;SDS011;59919;48.112;16.280;2023-03-23T04:19:05;1.40;;;1.30;;
71759;SDS011;59919;48.112;16.280;2023-03-23T04:21:40;1.63;;;1.38;;
71759;SDS011;59919;48.112;16.280;2023-03-23T04:24:16;1.75;;;1.48;;
71759;SDS011;59919;48.112;16.280;2023-03-23T04:26:47;2.08;;;1.60;;
71759;SDS011;59919;48.112;16.280;2023-03-23T04:29:25;1.67;;;1.30;;
71759;SDS011;59919;48.112;16.280;2023-03-23T04:32:00;1.85;;;1.50;;
71759;SDS011;59919;48.112;16.280;2023-03-23T04:34:34;1.60;;;1.40;;
71759;SDS011;59919;48.112;16.280;2023-03-23T04:37:07;1.73;;;1.45;;
71759;SDS011;59919;48.112;16.280;2023-03-23T04:39:44;2.00;;;1.60;;
71759;SDS011;59919;48.112;16.280;2023-03-23T04:42:18;1.73;;;1.45;;
71759;SDS011;59919;48.112;16.280;2023-03-23T04:44:49;1.55;;;1.25;;
71759;SDS011;59919;48.112;16.280;2023-03-23T04:47:26;1.42;;;1.33;;
71759;SDS011;59919;48.112;16.280;2023-03-23T04:50:02;2.33;;;1.30;;
71759;SDS011;59919;48.112;16.280;2023-03-23T04:52:38;1.75;;;1.42;;
71759;SDS011;59919;48.112;16.280;2023-03-23T04:55:15;1.88;;;1.38;;
71759;SDS011;59919;48.112;16.280;2023-03-23T04:57:47;1.75;;;1.42;;
71759;SDS011;59919;48.112;16.280;2023-03-23T05:00:19;1.48;;;1.38;;
71759;SDS011;59919;48.112;16.280;2023-03-23T05:02:53;1.88;;;1.27;;
71759;SDS011;59919;48.112;16.280;2023-03-23T05:05:26;1.65;;;1.40;;
71759;SDS011;59919;48.112;16.280;2023-03-23T05:08:01;1.60;;;1.50;;
71759;SDS011;59919;48.112;16.280;2023-03-23T05:10:37;1.48;;;1.38;;
71759;SDS011;59919;48.112;16.280;2023-03-23T05:13:11;1.83;;;1.45;;
71759;SDS011;59919;48.112;16.280;2023-03-23T05:15:44;1.38;;;1.25;;
71759;SDS011;59919;48.112;16.280;2023-03-23T05:18:15;1.60;;;1.50;;
71759;SDS011;59919;48.112;16.280;2023-03-23T05:20:50;1.38;;;1.20;;
71759;SDS011;59919;48.112;16.280;2023-03-23T05:23:23;1.40;;;1.30;;
71759;SDS011;59919;48.112;16.280;2023-03-23T05:25:57;2.25;;;1.60;;
71759;SDS011;59919;48.112;16.280;2023-03-23T05:28:33;1.63;;;1.30;;
71759;SDS011;59919;48.112;16.280;2023-03-23T05:31:04;1.33;;;1.15;;
71759;SDS011;59919;48.112;16.280;2023-03-23T05:33:38;1.83;;;1.45;;
71759;SDS011;59919;48.112;16.280;2023-03-23T05:36:09;1.83;;;1.38;;
71759;SDS011;59919;48.112;16.280;2023-03-23T05:38:46;1.70;;;1.38;;
71759;SDS011;59919;48.112;16.280;2023-03-23T05:41:19;2.05;;;1.50;;
71759;SDS011;59919;48.112;16.280;2023-03-23T05:43:51;1.98;;;1.30;;
71759;SDS011;59919;48.112;16.280;2023-03-23T05:46:23;1.88;;;1.40;;
71759;SDS011;59919;48.112;16.280;2023-03-23T05:48:57;1.63;;;1.30;;
71759;SDS011;59919;48.112;16.280;2023-03-23T05:51:28;2.22;;;1.35;;
71759;SDS011;59919;48.112;16.280;2023-03-23T05:54:05;2.28;;;1.30;;
71759;SDS011;59919;48.112;16.280;2023-03-23T05:56:37;1.85;;;1.27;;
71759;SDS011;59919;48.112;16.280;2023-03-23T05:59:11;1.13;;;1.00;;
71759;SDS011;59919;48.112;16.280;2023-03-23T06:01:42;2.10;;;1.13;;
71759;SDS011;59919;48.112;16.280;2023-03-23T06:04:13;1.25;;;1.10;;
71759;SDS011;59919;48.112;16.280;2023-03-23T06:06:47;1.38;;;1.20;;
71759;SDS011;59919;48.112;16.280;2023-03-23T06:09:25;1.65;;;1.38;;
71759;SDS011;59919;48.112;16.280;2023-03-23T06:11:57;1.70;;;1.50;;
71759;SDS011;59919;48.112;16.280;2023-03-23T06:14:29;1.27;;;1.15;;
71759;SDS011;59919;48.112;16.280;2023-03-23T06:17:00;2.22;;;1.25;;
71759;SDS011;59919;48.112;16.280;2023-03-23T06:19:31;1.30;;;1.15;;
71759;SDS011;59919;48.112;16.280;2023-03-23T06:22:02;1.70;;;1.27;;
71759;SDS011;59919;48.112;16.280;2023-03-23T06:24:39;2.00;;;1.65;;
71759;SDS011;59919;48.112;16.280;2023-03-23T06:27:15;1.25;;;1.10;;
71759;SDS011;59919;48.112;16.280;2023-03-23T06:29:48;1.52;;;1.30;;
71759;SDS011;59919;48.112;16.280;2023-03-23T06:32:21;1.83;;;1.20;;
71759;SDS011;59919;48.112;16.280;2023-03-23T06:34:58;2.58;;;1.20;;
71759;SDS011;59919;48.112;16.280;2023-03-23T06:37:31;1.65;;;1.20;;
71759;SDS011;59919;48.112;16.280;2023-03-23T06:40:05;2.38;;;1.30;;
71759;SDS011;59919;48.112;16.280;2023-03-23T06:42:38;1.92;;;1.48;;
71759;SDS011;59919;48.112;16.280;2023-03-23T06:45:12;1.13;;;0.95;;
71759;SDS011;59919;48.112;16.280;2023-03-23T06:47:44;1.67;;;1.55;;
71759;SDS011;59919;48.112;16.280;2023-03-23T06:50:19;2.08;;;1.48;;
71759;SDS011;59919;48.112;16.280;2023-03-23T06:52:50;3.10;;;1.23;;
71759;SDS011;59919;48.112;16.280;2023-03-23T06:55:21;2.60;;;1.80;;
71759;SDS011;59919;48.112;16.280;2023-03-23T06:57:52;1.50;;;1.40;;
71759;SDS011;59919;48.112;16.280;2023-03-23T07:00:26;1.83;;;1.30;;
71759;SDS011;59919;48.112;16.280;2023-03-23T07:02:57;1.42;;;1.10;;
71759;SDS011;59919;48.112;16.280;2023-03-23T07:05:34;1.40;;;1.30;;
71759;SDS011;59919;48.112;16.280;2023-03-23T07:08:11;1.55;;;1.20;;
71759;SDS011;59919;48.112;16.280;2023-03-23T07:10:46;2.42;;;1.30;;
71759;SDS011;59919;48.112;16.280;2023-03-23T07:13:17;1.50;;;1.30;;
71759;SDS011;59919;48.112;16.280;2023-03-23T07:15:49;1.50;;;0.98;;
71759;SDS011;59919;48.112;16.280;2023-03-23T07:18:21;1.75;;;1.20;;
71759;SDS011;59919;48.112;16.280;2023-03-23T07:20:52;1.58;;;1.20;;
71759;SDS011;59919;48.112;16.280;2023-03-23T07:23:28;2.80;;;1.38;;
71759;SDS011;59919;48.112;16.280;2023-03-23T07:25:59;3.30;;;1.13;;
71759;SDS011;59919;48.112;16.280;2023-03-23T07:28:31;2.28;;;1.02;;
71759;SDS011;59919;48.112;16.280;2023-03-23T07:31:04;1.60;;;1.45;;
71759;SDS011;59919;48.112;16.280;2023-03-23T07:33:39;2.63;;;1.10;;
71759;SDS011;59919;48.112;16.280;2023-03-23T07:36:12;1.38;;;1.23;;
71759;SDS011;59919;48.112;16.280;2023-03-23T07:38:43;1.92;;;1.10;;
71759;SDS011;59919;48.112;16.280;2023-03-23T07:41:14;1.98;;;1.35;;
71759;SDS011;59919;48.112;16.280;2023-03-23T07:43:53;5.72;;;1.70;;
71759;SDS011;59919;48.112;16.280;2023-03-23T07:46:26;3.50;;;1.30;;
71759;SDS011;59919;48.112;16.280;2023-03-23T07:48:57;9.85;;;1.75;;
71759;SDS011;59919;48.112;16.280;2023-03-23T07:51:36;6.95;;;1.45;;
71759;SDS011;59919;48.112;16.280;2023-03-23T07:54:08;7.38;;;1.40;;
71759;SDS011;59919;48.112;16.280;2023-03-23T07:56:42;16.10;;;2.10;;
71759;SDS011;59919;48.112;16.280;2023-03-23T07:59:15;18.40;;;1.83;;
71759;SDS011;59919;48.112;16.280;2023-03-23T08:01:49;8.13;;;1.60;;
71759;SDS011;59919;48.112;16.280;2023-03-23T08:04:20;11.38;;;1.50;;
71759;SDS011;59919;48.112;16.280;2023-03-23T08:06:53;22.48;;;3.90;;
71759;SDS011;59919;48.112;16.280;2023-03-23T08:09:24;13.23;;;2.38;;
71759;SDS011;59919;48.112;16.280;2023-03-23T08:11:55;17.83;;;3.53;;
71759;SDS011;59919;48.112;16.280;2023-03-23T08:14:27;16.88;;;3.25;;
71759;SDS011;59919;48.112;16.280;2023-03-23T08:16:58;14.20;;;2.97;;
71759;SDS011;59919;48.112;16.280;2023-03-23T08:19:33;8.93;;;3.55;;
71759;SDS011;59919;48.112;16.280;2023-03-23T08:22:07;17.88;;;3.80;;
71759;SDS011;59919;48.112;16.280;2023-03-23T08:24:38;16.23;;;3.70;;
71759;SDS011;59919;48.112;16.280;2023-03-23T08:27:09;19.70;;;4.68;;
71759;SDS011;59919;48.112;16.280;2023-03-23T08:29:46;21.92;;;4.00;;
71759;SDS011;59919;48.112;16.280;2023-03-23T08:32:18;13.50;;;3.88;;
71759;SDS011;59919;48.112;16.280;2023-03-23T08:34:54;12.73;;;3.60;;
71759;SDS011;59919;48.112;16.280;2023-03-23T08:37:28;9.65;;;3.80;;
71759;SDS011;59919;48.112;16.280;2023-03-23T08:39:59;13.23;;;3.85;;
71759;SDS011;59919;48.112;16.280;2023-03-23T08:42:31;17.02;;;4.70;;
71759;SDS011;59919;48.112;16.280;2023-03-23T08:45:05;23.00;;;5.20;;
71759;SDS011;59919;48.112;16.280;2023-03-23T08:47:38;14.00;;;4.68;;
71759;SDS011;59919;48.112;16.280;2023-03-23T08:50:11;10.52;;;4.40;;
71759;SDS011;59919;48.112;16.280;2023-03-23T08:52:43;10.93;;;3.70;;
71759;SDS011;59919;48.112;16.280;2023-03-23T08:55:15;13.63;;;4.50;;
71759;SDS011;59919;48.112;16.280;2023-03-23T08:57:48;13.00;;;4.57;;
71759;SDS011;59919;48.112;16.280;2023-03-23T09:00:20;13.80;;;4.75;;
71759;SDS011;59919;48.112;16.280;2023-03-23T09:02:54;11.38;;;4.22;;
71759;SDS011;59919;48.112;16.280;2023-03-23T09:05:33;8.25;;;4.18;;
71759;SDS011;59919;48.112;16.280;2023-03-23T09:08:07;15.55;;;4.60;;
71759;SDS011;59919;48.112;16.280;2023-03-23T09:10:41;16.27;;;4.90;;
71759;SDS011;59919;48.112;16.280;2023-03-23T09:13:12;22.77;;;4.60;;
71759;SDS011;59919;48.112;16.280;2023-03-23T09:15:48;9.73;;;4.32;;
71759;SDS011;59919;48.112;16.280;2023-03-23T09:18:19;15.27;;;4.78;;
71759;SDS011;59919;48.112;16.280;2023-03-23T09:20:51;14.00;;;4.15;;
71759;SDS011;59919;48.112;16.280;2023-03-23T09:23:23;15.68;;;4.22;;
71759;SDS011;59919;48.112;16.280;2023-03-23T09:25:55;10.75;;;4.45;;
71759;SDS011;59919;48.112;16.280;2023-03-23T09:28:40;10.02;;;3.58;;
71759;SDS011;59919;48.112;16.280;2023-03-23T09:31:12;9.60;;;4.10;;
71759;SDS011;59919;48.112;16.280;2023-03-23T09:33:46;10.82;;;4.10;;
71759;SDS011;59919;48.112;16.280;2023-03-23T09:36:19;9.00;;;3.85;;
71759;SDS011;59919;48.112;16.280;2023-03-23T09:38:53;12.55;;;4.30;;
71759;SDS011;59919;48.112;16.280;2023-03-23T09:50:28;7.40;;;3.38;;
71759;SDS011;59919;48.112;16.280;2023-03-23T09:55:45;8.15;;;3.42;;
71759;SDS011;59919;48.112;16.280;2023-03-23T09:58:25;7.60;;;3.80;;
71759;SDS011;59919;48.112;16.280;2023-03-23T10:01:15;6.78;;;3.60;;
71759;SDS011;59919;48.112;16.280;2023-03-23T10:04:15;6.38;;;3.58;;
71759;SDS011;59919;48.112;16.280;2023-03-23T10:07:11;7.38;;;3.40;;
71759;SDS011;59919;48.112;16.280;2023-03-23T10:09:53;9.32;;;3.92;;
71759;SDS011;59919;48.112;16.280;2023-03-23T10:12:36;8.13;;;3.55;;
71759;SDS011;59919;48.112;16.280;2023-03-23T10:15:20;7.53;;;3.45;;
71759;SDS011;59919;48.112;16.280;2023-03-23T10:31:04;7.35;;;3.08;;
71759;SDS011;59919;48.112;16.280;2023-03-23T10:33:49;5.63;;;3.35;;
71759;SDS011;59919;48.112;16.280;2023-03-23T10:36:30;7.75;;;3.10;;
71759;SDS011;59919;48.112;16.280;2023-03-23T10:39:13;10.00;;;3.13;;
71759;SDS011;59919;48.112;16.280;2023-03-23T10:44:26;7.10;;;3.58;;
71759;SDS011;59919;48.112;16.280;2023-03-23T10:47:05;7.45;;;2.95;;
71759;SDS011;59919;48.112;16.280;2023-03-23T10:52:33;3.70;;;2.75;;
71759;SDS011;59919;48.112;16.280;2023-03-23T10:55:17;4.13;;;2.50;;
71759;SDS011;59919;48.112;16.280;2023-03-23T10:58:04;7.18;;;3.03;;
71759;SDS011;59919;48.112;16.280;2023-03-23T11:00:44;8.10;;;3.08;;
71759;SDS011;59919;48.112;16.280;2023-03-23T11:03:38;12.85;;;3.17;;
71759;SDS011;59919;48.112;16.280;2023-03-23T11:06:19;8.27;;;3.15;;
71759;SDS011;59919;48.112;16.280;2023-03-23T11:08:55;9.90;;;3.42;;
71759;SDS011;59919;48.112;16.280;2023-03-23T11:11:38;7.07;;;2.67;;
71759;SDS011;59919;48.112;16.280;2023-03-23T11:14:34;13.20;;;3.53;;
71759;SDS011;59919;48.112;16.280;2023-03-23T11:17:20;12.65;;;3.45;;
71759;SDS011;59919;48.112;16.280;2023-03-23T11:19:55;7.93;;;3.28;;
71759;SDS011;59919;48.112;16.280;2023-03-23T11:22:27;12.02;;;3.40;;
71759;SDS011;59919;48.112;16.280;2023-03-23T11:25:01;9.18;;;3.50;;
71759;SDS011;59919;48.112;16.280;2023-03-23T11:27:34;7.05;;;3.17;;
71759;SDS011;59919;48.112;16.280;2023-03-23T11:30:19;12.68;;;3.60;;
71759;SDS011;59919;48.112;16.280;2023-03-23T11:33:01;8.50;;;3.60;;
71759;SDS011;59919;48.112;16.280;2023-03-23T11:35:33;7.90;;;3.20;;
71759;SDS011;59919;48.112;16.280;2023-03-23T11:38:05;8.60;;;3.10;;
71759;SDS011;59919;48.112;16.280;2023-03-23T11:40:44;7.22;;;2.83;;
71759;SDS011;59919;48.112;16.280;2023-03-23T11:43:19;7.60;;;2.80;;
71759;SDS011;59919;48.112;16.280;2023-03-23T11:46:05;6.80;;;2.90;;
71759;SDS011;59919;48.112;16.280;2023-03-23T11:48:55;7.60;;;3.30;;
71759;SDS011;59919;48.112;16.280;2023-03-23T11:51:50;6.53;;;3.03;;
71759;SDS011;59919;48.112;16.280;2023-03-23T11:57:00;5.93;;;2.70;;
71759;SDS011;59919;48.112;16.280;2023-03-23T11:59:32;10.23;;;2.80;;
71759;SDS011;59919;48.112;16.280;2023-03-23T12:10:47;7.28;;;2.50;;
71759;SDS011;59919;48.112;16.280;2023-03-23T12:13:27;3.92;;;2.17;;
71759;SDS011;59919;48.112;16.280;2023-03-23T12:19:16;5.68;;;3.05;;
71759;SDS011;59919;48.112;16.280;2023-03-23T12:25:18;3.80;;;2.42;;
71759;SDS011;59919;48.112;16.280;2023-03-23T12:30:57;7.93;;;2.80;;
71759;SDS011;59919;48.112;16.280;2023-03-23T12:33:37;5.32;;;2.40;;
71759;SDS011;59919;48.112;16.280;2023-03-23T12:44:56;8.65;;;2.47;;
71759;SDS011;59919;48.112;16.280;2023-03-23T12:47:50;9.40;;;2.83;;
71759;SDS011;59919;48.112;16.280;2023-03-23T12:50:37;7.30;;;2.50;;
71759;SDS011;59919;48.112;16.280;2023-03-23T12:53:26;17.70;;;3.15;;
71759;SDS011;59919;48.112;16.280;2023-03-23T12:56:06;9.23;;;2.78;;
71759;SDS011;59919;48.112;16.280;2023-03-23T12:58:46;17.45;;;3.15;;
71759;SDS011;59919;48.112;16.280;2023-03-23T13:01:29;8.65;;;3.00;;
71759;SDS011;59919;48.112;16.280;2023-03-23T13:04:15;14.82;;;3.35;;
71759;SDS011;59919;48.112;16.280;2023-03-23T13:06:58;11.02;;;3.05;;
71759;SDS011;59919;48.112;16.280;2023-03-23T13:09:53;13.17;;;3.30;;
71759;SDS011;59919;48.112;16.280;2023-03-23T13:12:33;10.82;;;3.15;;
71759;SDS011;59919;48.112;16.280;2023-03-23T13:15:25;14.43;;;3.67;;
71759;SDS011;59919;48.112;16.280;2023-03-23T13:18:44;14.35;;;3.05;;
71759;SDS011;59919;48.112;16.280;2023-03-23T13:21:25;18.30;;;4.32;;
71759;SDS011;59919;48.112;16.280;2023-03-23T13:24:06;11.73;;;3.40;;
71759;SDS011;59919;48.112;16.280;2023-03-23T13:26:44;11.32;;;3.60;;
71759;SDS011;59919;48.112;16.280;2023-03-23T13:29:19;11.02;;;3.50;;
71759;SDS011;59919;48.112;16.280;2023-03-23T13:32:05;10.50;;;3.45;;
71759;SDS011;59919;48.112;16.280;2023-03-23T13:34:41;13.75;;;3.53;;
71759;SDS011;59919;48.112;16.280;2023-03-23T13:39:48;9.88;;;3.25;;
71759;SDS011;59919;48.112;16.280;2023-03-23T13:42:26;9.73;;;3.58;;
71759;SDS011;59919;48.112;16.280;2023-03-23T13:45:07;11.07;;;3.05;;
71759;SDS011;59919;48.112;16.280;2023-03-23T13:50:54;10.48;;;2.95;;
71759;SDS011;59919;48.112;16.280;2023-03-23T13:53:29;4.63;;;2.30;;
71759;SDS011;59919;48.112;16.280;2023-03-23T13:58:44;9.32;;;2.63;;
71759;SDS011;59919;48.112;16.280;2023-03-23T14:01:29;8.93;;;2.47;;
71759;SDS011;59919;48.112;16.280;2023-03-23T14:04:14;7.43;;;2.67;;
71759;SDS011;59919;48.112;16.280;2023-03-23T14:06:49;4.65;;;2.10;;
71759;SDS011;59919;48.112;16.280;2023-03-23T14:12:20;11.73;;;2.60;;
71759;SDS011;59919;48.112;16.280;2023-03-23T14:15:01;8.48;;;2.35;;
71759;SDS011;59919;48.112;16.280;2023-03-23T14:17:41;11.55;;;2.92;;
71759;SDS011;59919;48.112;16.280;2023-03-23T14:20:19;11.60;;;3.00;;
71759;SDS011;59919;48.112;16.280;2023-03-23T14:22:56;6.88;;;2.38;;
71759;SDS011;59919;48.112;16.280;2023-03-23T14:25:29;11.15;;;2.95;;
71759;SDS011;59919;48.112;16.280;2023-03-23T14:28:15;12.93;;;3.15;;
71759;SDS011;59919;48.112;16.280;2023-03-23T14:30:54;12.60;;;2.83;;
71759;SDS011;59919;48.112;16.280;2023-03-23T14:33:27;9.27;;;3.33;;
71759;SDS011;59919;48.112;16.280;2023-03-23T14:35:59;8.77;;;2.40;;
71759;SDS011;59919;48.112;16.280;2023-03-23T14:38:30;9.85;;;2.92;;
71759;SDS011;59919;48.112;16.280;2023-03-23T14:41:04;8.90;;;2.70;;
71759;SDS011;59919;48.112;16.280;2023-03-23T14:43:39;7.85;;;2.58;;
71759;SDS011;59919;48.112;16.280;2023-03-23T14:46:10;10.65;;;2.45;;
71759;SDS011;59919;48.112;16.280;2023-03-23T14:48:45;11.75;;;2.88;;
71759;SDS011;59919;48.112;16.280;2023-03-23T14:51:21;8.82;;;2.55;;
71759;SDS011;59919;48.112;16.280;2023-03-23T14:53:55;10.15;;;2.53;;
71759;SDS011;59919;48.112;16.280;2023-03-23T14:56:31;10.15;;;2.60;;
71759;SDS011;59919;48.112;16.280;2023-03-23T14:59:06;7.90;;;2.50;;
71759;SDS011;59919;48.112;16.280;2023-03-23T15:01:40;9.65;;;2.55;;
71759;SDS011;59919;48.112;16.280;2023-03-23T15:04:21;10.75;;;2.72;;
71759;SDS011;59919;48.112;16.280;2023-03-23T15:07:00;12.20;;;2.80;;
71759;SDS011;59919;48.112;16.280;2023-03-23T15:09:33;5.35;;;2.38;;
71759;SDS011;59919;48.112;16.280;2023-03-23T15:12:25;6.40;;;2.58;;
71759;SDS011;59919;48.112;16.280;2023-03-23T15:15:03;6.60;;;2.33;;
71759;SDS011;59919;48.112;16.280;2023-03-23T15:17:47;6.80;;;2.47;;
71759;SDS011;59919;48.112;16.280;2023-03-23T15:20:28;6.68;;;2.20;;
71759;SDS011;59919;48.112;16.280;2023-03-23T15:23:06;4.95;;;2.15;;
71759;SDS011;59919;48.112;16.280;2023-03-23T15:25:38;6.50;;;2.42;;
71759;SDS011;59919;48.112;16.280;2023-03-23T15:28:17;7.43;;;2.38;;
71759;SDS011;59919;48.112;16.280;2023-03-23T15:30:56;7.47;;;2.17;;
71759;SDS011;59919;48.112;16.280;2023-03-23T15:33:33;5.72;;;2.33;;
71759;SDS011;59919;48.112;16.280;2023-03-23T15:36:14;7.47;;;2.33;;
71759;SDS011;59919;48.112;16.280;2023-03-23T15:38:50;6.85;;;2.30;;
71759;SDS011;59919;48.112;16.280;2023-03-23T15:41:23;7.28;;;2.10;;
71759;SDS011;59919;48.112;16.280;2023-03-23T15:43:58;8.57;;;2.63;;
71759;SDS011;59919;48.112;16.280;2023-03-23T15:46:50;6.13;;;2.40;;
71759;SDS011;59919;48.112;16.280;2023-03-23T15:49:22;8.18;;;2.28;;
71759;SDS011;59919;48.112;16.280;2023-03-23T15:51:57;4.35;;;1.92;;
71759;SDS011;59919;48.112;16.280;2023-03-23T15:54:31;8.05;;;2.42;;
71759;SDS011;59919;48.112;16.280;2023-03-23T15:57:05;11.60;;;2.20;;
71759;SDS011;59919;48.112;16.280;2023-03-23T15:59:40;7.40;;;2.25;;
71759;SDS011;59919;48.112;16.280;2023-03-23T16:02:15;3.60;;;2.08;;
71759;SDS011;59919;48.112;16.280;2023-03-23T16:04:53;4.88;;;1.85;;
71759;SDS011;59919;48.112;16.280;2023-03-23T16:07:24;8.02;;;2.00;;
71759;SDS011;59919;48.112;16.280;2023-03-23T16:09:55;3.85;;;2.17;;
71759;SDS011;59919;48.112;16.280;2023-03-23T16:12:29;4.82;;;1.90;;
71759;SDS011;59919;48.112;16.280;2023-03-23T16:15:00;4.05;;;2.33;;
71759;SDS011;59919;48.112;16.280;2023-03-23T16:17:31;4.47;;;2.40;;
71759;SDS011;59919;48.112;16.280;2023-03-23T16:22:54;3.13;;;1.88;;
71759;SDS011;59919;48.112;16.280;2023-03-23T16:25:28;3.65;;;2.17;;
71759;SDS011;59919;48.112;16.280;2023-03-23T16:27:59;5.03;;;1.88;;
71759;SDS011;59919;48.112;16.280;2023-03-23T16:30:32;6.38;;;2.20;;
71759;SDS011;59919;48.112;16.280;2023-03-23T16:33:05;9.27;;;2.10;;
71759;SDS011;59919;48.112;16.280;2023-03-23T16:35:36;4.10;;;1.80;;
71759;SDS011;59919;48.112;16.280;2023-03-23T16:38:10;2.92;;;1.90;;
71759;SDS011;59919;48.112;16.280;2023-03-23T16:40:51;5.88;;;1.98;;
71759;SDS011;59919;48.112;16.280;2023-03-23T16:43:25;3.00;;;1.70;;
71759;SDS011;59919;48.112;16.280;2023-03-23T16:45:56;3.50;;;1.70;;
71759;SDS011;59919;48.112;16.280;2023-03-23T16:48:27;5.68;;;2.33;;
71759;SDS011;59919;48.112;16.280;2023-03-23T16:51:01;5.13;;;2.00;;
71759;SDS011;59919;48.112;16.280;2023-03-23T16:53:32;4.30;;;1.77;;
71759;SDS011;59919;48.112;16.280;2023-03-23T16:56:03;5.13;;;2.00;;
71759;SDS011;59919;48.112;16.280;2023-03-23T16:58:37;7.43;;;2.33;;
71759;SDS011;59919;48.112;16.280;2023-03-23T17:01:14;8.45;;;2.25;;
71759;SDS011;59919;48.112;16.280;2023-03-23T17:03:49;6.30;;;1.98;;
71759;SDS011;59919;48.112;16.280;2023-03-23T17:06:24;10.20;;;2.50;;
71759;SDS011;59919;48.112;16.280;2023-03-23T17:08:57;15.32;;;2.35;;
71759;SDS011;59919;48.112;16.280;2023-03-23T17:11:28;12.93;;;2.55;;
71759;SDS011;59919;48.112;16.280;2023-03-23T17:14:00;11.82;;;2.45;;